Dodson, Oregon
Current Conditions -  °F | °C
As of 7:59 AM on Monday 22 Dec 2014 (Local Time) from K4S2 Reporting Station
Scattered Clouds Scattered Clouds  
Wind Chill: 46°   Ceiling: Unl
Heat Index: 46°   Visibility: 10mi
Dew Point: 41°   Wind: 0mph
Humidity: 81%   Direction: NA
Pressure: 30.29"   Gusts: NA
Location:  45.6281°N, 121.806°W
Report Text: K4S2 221559Z AUTO 00000KT 10SM SCT038 08/05 A3029 RMK AO2 SLP274 T00800050
Loading
Personal Weather Stations






























Interactive Weather Map New forecast layout! Learn more

10-Day Weather Forecast

Advertisements
Track Severe Weather on mobile